Time;durP1;ratioP1;P1;durP2;ratioP2;P2;SDS_P1;SDS_P2;PMS_P1;PMS_P2;Temp;Humidity;BMP_temperature;BMP_pressure;BME280_temperature;BME280_humidity;BME280_pressure;Samples;Min_cycle;Max_cycle;Signal;HPM_P1;HPM_P2
2022/07/06 00:00:41;;;;;;;7.75;5.15;;;;;;;;;;5024369;28;20422;-65
2022/07/06 00:03:07;;;;;;;9.00;4.80;;;;;;;20.90;nan;100460.44;5022163;28;20396;-65
2022/07/06 00:05:32;;;;;;;8.38;5.45;;;;;;;20.92;nan;100465.47;5020299;28;20061;-74
2022/07/06 00:07:57;;;;;;;12.02;10.48;;;;;;;;;;5007421;28;20041;-73
2022/07/06 00:10:23;;;;;;;7.13;5.27;;;;;;;20.93;nan;100394.81;5017641;28;20377;-74
2022/07/06 00:12:48;;;;;;;7.47;4.90;;;;;;;20.94;nan;100444.56;5024828;28;20041;-73
2022/07/06 00:15:13;;;;;;;7.22;4.63;;;;;;;20.91;nan;100431.78;5017083;28;20504;-74
2022/07/06 00:17:39;;;;;;;7.00;4.95;;;;;;;20.93;nan;100461.72;5020184;28;20435;-73
2022/07/06 00:20:05;;;;;;;7.05;5.10;;;;;;;20.87;nan;100412.03;5022127;28;20034;-72
2022/07/06 00:22:30;;;;;;;6.82;5.15;;;;;;;20.88;nan;100446.53;5015522;28;20061;-75
2022/07/06 00:24:56;;;;;;;6.22;4.68;;;;;;;20.89;nan;100484.81;5015676;28;20033;-74
2022/07/06 00:27:21;;;;;;;7.25;5.03;;;;;;;;;;5018935;28;20029;-73
2022/07/06 00:29:46;;;;;;;8.10;4.83;;;;;;;20.86;nan;100447.91;5021642;28;20041;-73
2022/07/06 00:32:12;;;;;;;7.32;5.25;;;;;;;20.87;nan;100461.00;5021056;28;20862;-74
2022/07/06 00:34:41;;;;;;;8.82;4.60;;;;;;;20.83;nan;100443.94;5023285;28;20045;-74
2022/07/06 00:37:07;;;;;;;8.05;5.03;;;;;;;20.85;nan;100465.84;5022280;28;20415;-73
2022/07/06 00:39:33;;;;;;;14.35;11.18;;;;;;;20.89;nan;100458.81;5028735;28;20091;-73
2022/07/06 00:41:58;;;;;;;9.73;5.00;;;;;;;20.88;nan;100443.03;5025220;28;20044;-73
2022/07/06 00:44:24;;;;;;;8.98;4.68;;;;;;;20.90;nan;100459.63;5023703;28;20041;-74
2022/07/06 00:46:50;;;;;;;7.95;4.88;;;;;;;20.91;nan;100456.66;5030354;28;20049;-75
2022/07/06 00:51:59;;;;;;;6.35;4.60;;;;;;;20.87;nan;100454.84;5024090;28;20034;-73
2022/07/06 00:54:26;;;;;;;7.22;4.50;;;;;;;20.85;nan;100447.09;5023875;28;20077;-73
2022/07/06 00:56:52;;;;;;;6.32;4.78;;;;;;;20.82;nan;100426.28;5034600;28;20040;-72
2022/07/06 00:59:18;;;;;;;8.50;4.80;;;;;;;20.85;nan;100455.13;5028812;28;20030;-73
2022/07/06 01:01:43;;;;;;;6.00;4.75;;;;;;;20.84;nan;100453.56;5019212;28;20069;-73
2022/07/06 01:04:09;;;;;;;10.32;5.10;;;;;;;20.78;nan;100438.66;5025076;28;20142;-74
2022/07/06 01:06:34;;;;;;;6.78;5.20;;;;;;;20.76;nan;100492.50;5021539;28;20111;-74
2022/07/06 01:09:00;;;;;;;17.77;14.98;;;;;;;20.80;nan;100423.88;5021148;28;20032;-73
2022/07/06 01:11:26;;;;;;;7.50;5.07;;;;;;;20.75;nan;100417.84;5005387;28;20037;-74
2022/07/06 01:13:51;;;;;;;6.95;5.50;;;;;;;20.77;nan;100466.50;5017504;28;20060;-72
2022/07/06 01:16:17;;;;;;;10.85;5.82;;;;;;;20.74;nan;100418.94;5019923;28;20033;-73
2022/07/06 01:18:43;;;;;;;7.20;5.45;;;;;;;20.74;nan;100424.28;5025399;28;20485;-74
2022/07/06 01:21:13;;;;;;;9.30;5.60;;;;;;;20.73;nan;100425.34;5029082;28;20052;-74
2022/07/06 01:23:43;;;;;;;7.15;5.60;;;;;;;20.71;nan;100423.00;5029192;28;20033;-73
2022/07/06 01:26:18;;;;;;;7.45;5.30;;;;;;;20.71;nan;100460.44;5040647;28;20439;-73
2022/07/06 01:28:44;;;;;;;7.72;5.72;;;;;;;20.67;nan;100421.19;5041083;28;20052;-74
2022/07/06 01:31:24;;;;;;;8.57;5.32;;;;;;;20.66;nan;100430.28;5026216;28;20037;-74
2022/07/06 01:33:53;;;;;;;8.38;5.60;;;;;;;20.62;nan;100381.94;5030170;28;20040;-74
2022/07/06 01:36:19;;;;;;;10.23;7.20;;;;;;;20.62;nan;100405.22;5030937;28;20484;-74
2022/07/06 01:38:50;;;;;;;20.75;14.70;;;;;;;20.68;nan;100407.50;5034005;28;20040;-74
2022/07/06 01:41:16;;;;;;;8.85;6.57;;;;;;;20.55;nan;100390.31;5030040;28;20037;-74
2022/07/06 01:43:42;;;;;;;10.10;5.57;;;;;;;20.64;nan;100408.38;5029337;28;20052;-74
2022/07/06 01:46:08;;;;;;;8.45;5.32;;;;;;;20.62;nan;100413.25;5026221;28;20492;-74
2022/07/06 01:48:33;;;;;;;7.93;5.13;;;;;;;20.60;nan;100392.13;5026396;28;20033;-74
2022/07/06 01:50:59;;;;;;;7.50;5.63;;;;;;;20.43;nan;100394.50;5034468;28;20033;-74
2022/07/06 01:53:24;;;;;;;10.32;5.80;;;;;;;20.57;nan;100444.34;5027305;28;20033;-74
2022/07/06 01:55:49;;;;;;;7.40;5.50;;;;;;;20.49;nan;100386.09;5032275;28;20045;-74
2022/07/06 01:58:15;;;;;;;6.55;4.63;;;;;;;20.42;nan;100404.38;5027513;28;20033;-74
2022/07/06 02:00:41;;;;;;;8.25;5.25;;;;;;;20.48;nan;100408.59;5021411;28;20163;-74
2022/07/06 02:03:06;;;;;;;8.10;5.70;;;;;;;20.41;nan;100394.78;5033452;28;20029;-74
2022/07/06 02:05:31;;;;;;;8.48;5.88;;;;;;;20.46;nan;100399.28;5032816;28;20040;-74
2022/07/06 02:07:57;;;;;;;26.48;24.08;;;;;;;20.40;nan;100393.22;5028024;28;20543;-74
2022/07/06 02:10:22;;;;;;;10.00;7.63;;;;;;;20.52;nan;100374.00;5025656;28;20113;-66
2022/07/06 02:12:48;;;;;;;9.98;6.10;;;;;;;20.50;nan;100398.41;5028026;28;20132;-66
2022/07/06 02:15:13;;;;;;;10.55;5.53;;;;;;;20.48;nan;100407.81;5032636;28;20647;-66
2022/07/06 02:17:39;;;;;;;9.85;5.55;;;;;;;20.39;nan;100435.19;5034850;28;20033;-67
2022/07/06 02:20:05;;;;;;;6.80;5.63;;;;;;;20.44;nan;100398.75;5031996;28;20037;-65
2022/07/06 02:22:31;;;;;;;9.90;5.47;;;;;;;20.38;nan;100390.81;5028526;28;20483;-65
2022/07/06 02:24:56;;;;;;;12.60;5.40;;;;;;;20.37;nan;100386.53;5028564;28;20121;-66
2022/07/06 02:27:22;;;;;;;7.50;5.60;;;;;;;20.38;nan;100422.13;5025696;28;20045;-66
2022/07/06 02:29:47;;;;;;;7.18;6.22;;;;;;;20.31;nan;100411.00;5031961;28;20037;-65
2022/07/06 02:32:13;;;;;;;9.00;5.97;;;;;;;20.31;nan;100427.03;5026659;28;20029;-66
2022/07/06 02:34:38;;;;;;;10.07;5.93;;;;;;;;;;5031073;28;20034;-65
2022/07/06 02:37:04;;;;;;;8.87;6.03;;;;;;;20.24;nan;100378.47;5025689;28;20029;-66
2022/07/06 02:39:29;;;;;;;9.85;6.35;;;;;;;20.20;nan;100380.91;5027497;28;20263;-75
2022/07/06 02:41:55;;;;;;;10.32;6.15;;;;;;;20.25;nan;100407.56;5026592;28;20025;-74
2022/07/06 02:44:20;;;;;;;6.03;5.28;;;;;;;20.22;nan;100404.69;5027773;28;20029;-74
2022/07/06 02:46:46;;;;;;;6.05;5.10;;;;;;;20.18;nan;100415.97;5031692;28;20487;-73
2022/07/06 02:49:11;;;;;;;8.13;5.20;;;;;;;;;;5027691;28;20100;-75
2022/07/06 02:51:36;;;;;;;6.43;4.90;;;;;;;20.15;nan;100397.81;5029284;28;20156;-75
2022/07/06 02:54:02;;;;;;;6.47;4.47;;;;;;;;;;5026729;28;20033;-75
2022/07/06 02:56:28;;;;;;;6.00;4.90;;;;;;;20.17;nan;100393.00;5027600;28;20040;-75
2022/07/06 02:58:53;;;;;;;7.00;5.38;;;;;;;20.23;nan;100403.59;5023566;28;20400;-75
2022/07/06 03:01:19;;;;;;;7.22;5.10;;;;;;;20.14;nan;100444.38;5024480;28;20036;-74
2022/07/06 03:03:44;;;;;;;5.18;4.68;;;;;;;20.18;nan;100410.63;5025167;28;20045;-75
2022/07/06 03:06:10;;;;;;;9.07;5.25;;;;;;;20.20;nan;100458.44;5025865;28;20037;-75
2022/07/06 03:08:35;;;;;;;6.93;5.25;;;;;;;20.23;nan;100415.09;5027055;28;20033;-73
2022/07/06 03:11:00;;;;;;;5.85;4.43;;;;;;;;;;5029484;28;20044;-66
2022/07/06 03:13:27;;;;;;;5.10;4.57;;;;;;;20.20;nan;100421.03;5025846;28;20046;-66
2022/07/06 03:15:52;;;;;;;7.40;4.85;;;;;;;20.23;nan;100425.78;5031472;28;20063;-66
2022/07/06 03:18:17;;;;;;;6.82;4.78;;;;;;;20.24;nan;100413.22;5024546;28;20506;-66
2022/07/06 03:20:43;;;;;;;5.50;4.93;;;;;;;20.25;nan;100404.13;5028228;28;20033;-66
2022/07/06 03:23:08;;;;;;;7.20;4.85;;;;;;;20.19;nan;100398.84;5030107;28;20038;-66
2022/07/06 03:25:34;;;;;;;6.57;4.82;;;;;;;20.26;nan;100413.75;5023612;28;20385;-66
2022/07/06 03:27:59;;;;;;;6.28;4.90;;;;;;;20.24;nan;100379.25;5020427;28;20068;-65
2022/07/06 03:30:25;;;;;;;5.40;4.90;;;;;;;20.23;nan;100455.19;5026045;28;20037;-66
2022/07/06 03:32:50;;;;;;;5.50;4.85;;;;;;;20.23;nan;100417.75;5023719;28;20040;-65
2022/07/06 03:35:15;;;;;;;6.20;4.88;;;;;;;20.22;nan;100405.50;5025804;28;20034;-65
2022/07/06 03:37:41;;;;;;;5.10;4.60;;;;;;;20.19;nan;100387.38;5027281;28;20034;-65
2022/07/06 03:40:07;;;;;;;8.48;5.47;;;;;;;20.18;nan;100399.13;5028429;28;20029;-65
2022/07/06 03:42:32;;;;;;;5.22;4.50;;;;;;;20.13;nan;100555.06;5027686;28;20108;-66
2022/07/06 03:44:58;;;;;;;12.38;5.45;;;;;;;20.20;nan;100413.00;5032744;28;20037;-67
2022/07/06 03:47:23;;;;;;;5.90;5.30;;;;;;;20.17;nan;100409.03;5022030;28;20479;-67
2022/07/06 03:49:48;;;;;;;7.28;4.88;;;;;;;20.21;nan;100430.66;5031656;28;20112;-66
2022/07/06 03:52:17;;;;;;;22.25;5.00;;;;;;;20.20;nan;100434.38;5028702;28;20834;-66
2022/07/06 03:54:42;;;;;;;6.20;5.10;;;;;;;20.25;nan;100422.84;5020555;28;20034;-65
2022/07/06 03:57:08;;;;;;;10.85;4.97;;;;;;;20.21;nan;100480.63;5020692;28;20080;-66
2022/07/06 03:59:33;;;;;;;9.10;5.78;;;;;;;20.23;nan;100430.34;5031337;28;20041;-66
2022/07/06 04:01:58;;;;;;;7.13;4.97;;;;;;;;;;5025546;28;20044;-66
2022/07/06 04:04:24;;;;;;;5.30;4.80;;;;;;;20.17;nan;100416.25;5024523;28;20056;-65
2022/07/06 04:06:49;;;;;;;8.02;5.53;;;;;;;20.17;nan;100417.06;5025422;28;20340;-65
2022/07/06 04:09:15;;;;;;;6.72;5.65;;;;;;;20.16;nan;100436.88;5020314;28;20045;-66
2022/07/06 04:11:40;;;;;;;6.00;5.40;;;;;;;20.11;nan;100418.22;5030156;28;20049;-65
2022/07/06 04:14:06;;;;;;;6.75;5.30;;;;;;;20.14;nan;100411.50;5022764;28;20072;-66
2022/07/06 04:16:31;;;;;;;8.10;5.38;;;;;;;20.18;nan;100410.63;5027163;28;20483;-66
2022/07/06 04:18:56;;;;;;;6.70;4.97;;;;;;;20.19;nan;100417.56;5025288;28;20384;-66
2022/07/06 04:21:22;;;;;;;6.07;5.40;;;;;;;;;;5028845;28;20379;-66
2022/07/06 04:23:47;;;;;;;5.53;5.03;;;;;;;20.21;nan;100411.13;5026644;28;20127;-66
2022/07/06 04:26:13;;;;;;;5.90;5.13;;;;;;;20.16;nan;100522.41;5026542;28;20709;-66
2022/07/06 04:28:38;;;;;;;10.60;5.25;;;;;;;20.16;nan;100404.78;5028552;28;20995;-66
2022/07/06 04:31:04;;;;;;;7.90;5.10;;;;;;;20.11;nan;100378.13;5026620;28;20033;-66
2022/07/06 04:33:29;;;;;;;7.38;5.32;;;;;;;20.17;nan;100414.38;5022703;28;20426;-67
2022/07/06 04:35:54;;;;;;;6.55;5.18;;;;;;;20.21;nan;100406.59;5026154;28;20033;-65
2022/07/06 04:38:20;;;;;;;11.25;5.35;;;;;;;20.27;nan;100380.56;5021990;28;20079;-66
2022/07/06 04:40:48;;;;;;;7.35;5.10;;;;;;;20.28;nan;100393.66;5024898;28;20072;-68
2022/07/06 04:43:13;;;;;;;9.93;5.40;;;;;;;20.18;nan;100385.75;5027569;28;20029;-67
2022/07/06 04:45:39;;;;;;;7.72;5.32;;;;;;;20.31;nan;100402.97;5026717;28;20384;-67
2022/07/06 04:48:05;;;;;;;6.13;5.53;;;;;;;20.30;nan;100414.75;5029632;28;20034;-66
2022/07/06 04:50:32;;;;;;;7.63;5.40;;;;;;;20.24;nan;100389.16;5029930;28;20425;-76
2022/07/06 04:52:58;;;;;;;8.55;5.70;;;;;;;20.35;nan;100396.75;5021918;28;20087;-76
2022/07/06 04:55:23;;;;;;;6.32;5.05;;;;;;;20.44;nan;100436.22;5027806;28;20025;-74
2022/07/06 04:57:51;;;;;;;5.82;5.13;;;;;;;20.45;nan;100413.72;5028586;28;20037;-66
2022/07/06 05:00:17;;;;;;;7.18;5.22;;;;;;;20.42;nan;100417.75;5031336;28;20033;-66
2022/07/06 05:02:42;;;;;;;6.45;5.43;;;;;;;20.43;nan;100424.72;5025943;28;20040;-76
2022/07/06 05:05:09;;;;;;;6.20;5.30;;;;;;;20.43;nan;100472.88;5030494;28;20036;-75
2022/07/06 05:07:39;;;;;;;6.88;5.55;;;;;;;20.40;nan;100427.97;5028922;28;20130;-73
2022/07/06 05:10:08;;;;;;;9.35;5.22;;;;;;;20.40;nan;100425.31;5026041;28;20430;-76
2022/07/06 05:12:34;;;;;;;6.15;5.45;;;;;;;20.46;nan;100418.00;5025289;28;20131;-75
2022/07/06 05:14:59;;;;;;;5.88;5.25;;;;;;;20.51;nan;100423.25;5027477;28;20029;-75
2022/07/06 05:17:25;;;;;;;7.15;5.10;;;;;;;20.51;nan;100418.69;5032048;28;20426;-76
2022/07/06 05:19:50;;;;;;;6.15;5.00;;;;;;;20.51;nan;100420.59;5027960;28;20030;-77
2022/07/06 05:22:16;;;;;;;5.28;4.78;;;;;;;20.54;nan;100420.00;5028321;28;20029;-75
2022/07/06 05:24:41;;;;;;;6.60;5.10;;;;;;;20.63;nan;100433.56;5029972;28;20380;-78
2022/07/06 05:27:07;;;;;;;7.93;5.50;;;;;;;20.62;nan;100437.31;5020074;28;20076;-76
2022/07/06 05:29:32;;;;;;;5.80;5.00;;;;;;;20.45;nan;100403.00;5026788;28;20026;-77
2022/07/06 05:31:57;;;;;;;5.97;5.07;;;;;;;;;;5025587;28;20038;-68
2022/07/06 05:34:23;;;;;;;5.13;4.63;;;;;;;20.49;nan;100401.34;5027956;28;20041;-67
2022/07/06 05:36:48;;;;;;;6.55;5.00;;;;;;;20.58;nan;100439.78;5029445;28;20117;-65
2022/07/06 05:39:18;;;;;;;6.22;5.45;;;;;;;20.59;nan;100434.13;5030988;28;20026;-66
2022/07/06 05:41:44;;;;;;;7.28;5.63;;;;;;;20.69;nan;100451.13;5027128;28;20031;-67
2022/07/06 05:44:10;;;;;;;7.22;5.30;;;;;;;20.71;nan;100408.78;5024514;28;20140;-66
2022/07/06 05:46:36;;;;;;;8.98;5.50;;;;;;;20.66;nan;100415.03;5024402;28;20075;-66
2022/07/06 05:51:45;;;;;;;7.93;5.18;;;;;;;20.63;nan;100455.75;5026897;28;20030;-67
2022/07/06 05:54:11;;;;;;;5.55;4.95;;;;;;;20.55;nan;100449.19;5030132;28;20038;-66
2022/07/06 05:56:36;;;;;;;6.50;5.13;;;;;;;20.53;nan;100456.66;5029342;28;20445;-67
2022/07/06 05:59:01;;;;;;;6.65;5.25;;;;;;;20.60;nan;100451.78;5023325;28;20033;-67
2022/07/06 06:01:27;;;;;;;6.32;5.38;;;;;;;20.56;nan;100514.97;5025664;28;20022;-67
2022/07/06 06:03:52;;;;;;;6.82;5.90;;;;;;;20.49;nan;100436.91;5024122;28;20044;-68
2022/07/06 06:06:17;;;;;;;6.22;5.35;;;;;;;;;;5027696;28;20033;-77
2022/07/06 06:08:43;;;;;;;7.85;5.90;;;;;;;;;;5027258;28;20071;-77
2022/07/06 06:11:08;;;;;;;8.50;5.53;;;;;;;20.60;nan;100376.06;5025879;28;20060;-79
2022/07/06 06:13:34;;;;;;;8.77;5.65;;;;;;;20.63;nan;100446.94;5030165;28;20081;-67
2022/07/06 06:15:59;;;;;;;5.90;5.30;;;;;;;;;;5022198;28;20038;-67
2022/07/06 06:18:24;;;;;;;6.47;5.00;;;;;;;20.63;nan;100436.22;5025177;28;20041;-68
2022/07/06 06:20:50;;;;;;;7.60;5.15;;;;;;;20.63;nan;100402.22;5030716;28;20259;-68
2022/07/06 06:23:15;;;;;;;5.45;4.95;;;;;;;20.70;nan;100445.47;5027312;28;20365;-68
2022/07/06 06:25:41;;;;;;;5.55;4.35;;;;;;;20.71;nan;100438.22;5030829;28;20036;-68
2022/07/06 06:28:08;;;;;;;5.10;4.60;;;;;;;20.74;nan;100443.81;5029641;28;20041;-68
2022/07/06 06:30:34;;;;;;;7.13;5.28;;;;;;;;;;5030840;28;20492;-67
2022/07/06 06:33:14;;;;;;;6.20;5.30;;;;;;;20.75;nan;100399.09;5029896;28;20050;-78
2022/07/06 06:35:45;;;;;;;5.53;4.93;;;;;;;20.81;nan;100436.19;5029102;28;20383;-68
2022/07/06 06:38:11;;;;;;;5.90;5.30;;;;;;;20.84;nan;100423.31;5031657;28;20029;-67
2022/07/06 06:40:37;;;;;;;6.55;5.85;;;;;;;20.88;nan;100435.00;5025745;28;20683;-67
2022/07/06 06:43:03;;;;;;;7.20;6.07;;;;;;;20.81;nan;100483.59;5024572;28;20033;-68
2022/07/06 06:45:28;;;;;;;5.88;5.30;;;;;;;20.87;nan;100428.09;5025844;28;20022;-68
2022/07/06 06:47:54;;;;;;;7.72;6.00;;;;;;;20.86;nan;100429.97;5030265;28;20037;-78
2022/07/06 06:50:19;;;;;;;6.18;5.57;;;;;;;20.87;nan;100418.16;5030037;28;20052;-67
2022/07/06 06:52:44;;;;;;;9.32;7.05;;;;;;;;;;5025541;28;20120;-77
2022/07/06 06:55:10;;;;;;;14.40;9.50;;;;;;;20.85;nan;100433.72;5025514;28;20037;-68
2022/07/06 06:57:36;;;;;;;14.15;8.25;;;;;;;;;;5026278;28;20258;-76
2022/07/06 07:00:02;;;;;;;8.27;7.10;;;;;;;20.94;nan;100447.25;5026969;28;20033;-78
2022/07/06 07:02:28;;;;;;;5.68;4.93;;;;;;;20.90;nan;100422.97;5031033;28;20053;-78
2022/07/06 07:04:53;;;;;;;6.47;5.20;;;;;;;20.89;nan;100407.19;5033428;28;20057;-78
2022/07/06 07:07:19;;;;;;;6.88;4.95;;;;;;;20.86;nan;100446.03;5036532;28;20039;-73
2022/07/06 07:09:45;;;;;;;10.25;5.35;;;;;;;20.77;nan;100424.47;5044918;28;20057;-77
2022/07/06 07:12:11;;;;;;;6.45;4.93;;;;;;;20.84;nan;100460.78;5037121;28;20049;-66
2022/07/06 07:14:37;;;;;;;6.32;4.97;;;;;;;;;;5028672;28;20041;-77
2022/07/06 07:17:03;;;;;;;8.85;5.22;;;;;;;20.80;nan;100456.00;5030038;28;20042;-77
2022/07/06 07:19:28;;;;;;;7.65;5.32;;;;;;;20.83;nan;100454.66;5023966;28;20029;-77
2022/07/06 07:21:53;;;;;;;10.55;5.03;;;;;;;20.79;nan;100408.16;5028299;28;20041;-77
2022/07/06 07:24:19;;;;;;;5.82;5.22;;;;;;;;;;5024838;28;20032;-78
2022/07/06 07:26:44;;;;;;;5.93;5.30;;;;;;;20.75;nan;100449.94;5044138;28;20034;-78
2022/07/06 07:29:10;;;;;;;6.32;5.22;;;;;;;20.75;nan;100490.09;5030620;28;20546;-77
2022/07/06 07:31:35;;;;;;;7.45;5.45;;;;;;;20.72;nan;100440.63;5022968;28;20037;-76
2022/07/06 07:34:00;;;;;;;5.85;5.18;;;;;;;20.75;nan;100444.59;5025005;28;20033;-77
2022/07/06 07:36:26;;;;;;;7.45;4.70;;;;;;;20.84;nan;100452.78;5018261;28;20464;-78
2022/07/06 07:38:52;;;;;;;7.10;5.30;;;;;;;20.84;nan;100389.31;5025298;28;20029;-76
2022/07/06 07:41:17;;;;;;;5.97;4.82;;;;;;;20.90;nan;100454.25;5026566;28;20033;-77
2022/07/06 07:43:43;;;;;;;8.02;4.78;;;;;;;20.86;nan;100448.72;5022839;28;20040;-76
2022/07/06 07:46:09;;;;;;;8.95;4.65;;;;;;;21.01;nan;100461.03;5024438;28;20034;-76
2022/07/06 07:48:34;;;;;;;5.68;4.47;;;;;;;21.02;nan;100444.69;5022551;28;20038;-77
2022/07/06 07:50:59;;;;;;;7.80;4.78;;;;;;;21.04;nan;100498.72;5023266;28;20049;-77
2022/07/06 07:53:25;;;;;;;8.20;4.68;;;;;;;21.03;nan;100461.56;5029207;28;20075;-77
2022/07/06 07:55:50;;;;;;;6.30;4.60;;;;;;;21.07;nan;100475.94;5028069;28;20064;-77
2022/07/06 07:58:16;;;;;;;4.88;4.40;;;;;;;20.98;nan;100467.00;5025863;28;20037;-75
2022/07/06 08:00:41;;;;;;;7.10;4.80;;;;;;;20.94;nan;100514.94;5026338;28;20483;-75
2022/07/06 08:03:07;;;;;;;8.98;5.00;;;;;;;21.01;nan;100477.91;5021650;28;20681;-75
2022/07/06 08:05:32;;;;;;;6.53;4.47;;;;;;;21.03;nan;100480.28;5021545;28;20034;-75
2022/07/06 08:07:58;;;;;;;7.50;4.80;;;;;;;21.02;nan;100458.09;5024831;28;20490;-75
2022/07/06 08:10:23;;;;;;;5.65;5.13;;;;;;;21.02;nan;100525.03;5019182;28;20547;-75
2022/07/06 08:12:49;;;;;;;7.93;4.60;;;;;;;21.07;nan;100483.16;5025304;28;20072;-75
2022/07/06 08:15:14;;;;;;;6.90;4.45;;;;;;;21.10;nan;100490.63;5022707;28;20484;-67
2022/07/06 08:17:39;;;;;;;6.78;5.13;;;;;;;20.98;nan;100499.13;5021082;28;20030;-66
2022/07/06 08:20:06;;;;;;;6.45;4.80;;;;;;;21.02;nan;100511.63;5024312;28;20033;-67
2022/07/06 08:22:31;;;;;;;6.75;4.57;;;;;;;20.97;nan;100637.53;5022537;28;20029;-67
2022/07/06 08:24:57;;;;;;;5.18;4.70;;;;;;;21.00;nan;100497.75;5020192;28;20033;-67
2022/07/06 08:27:23;;;;;;;8.60;4.70;;;;;;;21.03;nan;100494.47;5023581;28;20033;-67
2022/07/06 08:29:49;;;;;;;7.15;4.78;;;;;;;21.08;nan;100479.41;5020635;28;20091;-68
2022/07/06 08:32:14;;;;;;;5.63;4.95;;;;;;;21.14;nan;100443.41;5021528;28;20029;-67
2022/07/06 08:34:39;;;;;;;5.47;4.82;;;;;;;21.05;nan;100507.56;5021198;28;20046;-67
2022/07/06 08:37:05;;;;;;;9.93;4.68;;;;;;;21.07;nan;100502.72;5021641;28;20808;-67
2022/07/06 08:39:31;;;;;;;5.82;4.50;;;;;;;21.17;nan;100496.41;5024418;28;20419;-66
2022/07/06 08:41:59;;;;;;;5.45;4.68;;;;;;;21.08;nan;100488.25;5028749;28;20036;-66
2022/07/06 08:44:26;;;;;;;8.67;5.20;;;;;;;21.24;nan;100486.09;5026005;28;20033;-67
2022/07/06 08:46:52;;;;;;;10.20;4.97;;;;;;;21.32;nan;100472.03;5026493;28;20029;-67
2022/07/06 08:49:19;;;;;;;6.28;4.95;;;;;;;21.35;nan;100561.72;5021447;28;20533;-67
2022/07/06 08:51:45;;;;;;;7.55;5.28;;;;;;;21.33;nan;100515.69;5019094;28;20037;-77
2022/07/06 08:54:12;;;;;;;7.03;5.30;;;;;;;21.36;nan;100459.66;5023380;28;20037;-73
2022/07/06 08:56:39;;;;;;;6.53;5.72;;;;;;;21.37;nan;100535.44;5018274;28;20041;-76
2022/07/06 08:59:08;;;;;;;6.88;4.93;;;;;;;21.37;nan;100546.94;5026565;28;20041;-66
2022/07/06 09:01:35;;;;;;;6.07;4.90;;;;;;;21.37;nan;100576.41;5023311;28;20109;-75
2022/07/06 09:04:04;;;;;;;6.85;5.15;;;;;;;21.41;nan;100515.84;5020047;28;20088;-75
2022/07/06 09:06:30;;;;;;;;;;;;;;;21.43;nan;100519.03;5018178;28;20056;-74
2022/07/06 09:08:57;;;;;;;5.80;4.65;;;;;;;21.45;nan;100524.88;5026572;28;19965;-66
2022/07/06 09:11:24;;;;;;;6.40;5.57;;;;;;;21.48;nan;100498.56;5025672;28;20455;-75
2022/07/06 09:13:52;;;;;;;6.45;4.70;;;;;;;21.48;nan;100482.50;5020797;28;20030;-66
2022/07/06 09:16:25;;;;;;;6.15;5.30;;;;;;;21.49;nan;100535.78;5021289;28;20037;-75
2022/07/06 09:18:51;;;;;;;7.75;5.22;;;;;;;21.51;nan;100533.63;5022144;28;20057;-73
2022/07/06 09:21:30;;;;;;;13.77;6.05;;;;;;;21.57;nan;100520.91;5016488;28;20068;-66
2022/07/06 09:23:57;;;;;;;8.20;5.55;;;;;;;21.53;nan;100477.06;5020274;28;20542;-74
2022/07/06 09:26:24;;;;;;;8.55;5.40;;;;;;;21.53;nan;100534.13;5023044;28;20029;-74
2022/07/06 09:28:49;;;;;;;20.67;12.35;;;;;;;21.52;nan;100559.31;5019054;28;20034;-75
2022/07/06 09:31:15;;;;;;;8.20;6.25;;;;;;;21.58;nan;100509.13;5021343;28;20026;-75
2022/07/06 09:33:54;;;;;;;7.15;5.95;;;;;;;21.64;nan;100527.50;5021723;28;20056;-76
2022/07/06 09:36:39;;;;;;;9.60;6.25;;;;;;;21.63;nan;100535.81;5015416;28;20134;-75
2022/07/06 09:39:27;;;;;;;7.75;5.90;;;;;;;21.63;nan;100538.50;5012513;28;20141;-76
2022/07/06 09:41:54;;;;;;;9.60;5.47;;;;;;;21.69;nan;100539.97;5026027;28;20026;-75
2022/07/06 09:44:26;;;;;;;6.55;5.40;;;;;;;;;;5023870;28;20048;-75
2022/07/06 09:46:55;;;;;;;6.60;5.47;;;;;;;21.73;nan;100535.63;5027123;28;20094;-76
2022/07/06 09:49:21;;;;;;;6.15;5.28;;;;;;;21.76;nan;100534.25;5020792;28;20036;-76
2022/07/06 09:51:49;;;;;;;5.50;5.00;;;;;;;21.74;nan;100539.09;5043665;28;20029;-66
2022/07/06 09:54:15;;;;;;;7.63;5.32;;;;;;;21.76;nan;100539.59;5028944;28;20040;-75
2022/07/06 09:56:42;;;;;;;7.00;5.30;;;;;;;21.77;nan;100466.16;5029526;28;20041;-75
2022/07/06 09:59:10;;;;;;;6.13;5.20;;;;;;;21.85;nan;100521.75;5024411;28;20089;-74
2022/07/06 10:01:39;;;;;;;7.90;5.28;;;;;;;21.82;nan;100490.19;5026499;28;20036;-75
2022/07/06 10:04:06;;;;;;;7.75;5.50;;;;;;;21.88;nan;100543.41;5024611;28;20036;-65
2022/07/06 10:06:32;;;;;;;6.25;5.57;;;;;;;21.89;nan;100463.75;5024148;28;20038;-66
2022/07/06 10:08:58;;;;;;;7.97;5.57;;;;;;;21.88;nan;100521.97;5027387;28;20021;-65
2022/07/06 10:11:25;;;;;;;5.88;5.28;;;;;;;21.82;nan;100533.84;5024542;28;20036;-65
2022/07/06 10:13:54;;;;;;;6.90;5.22;;;;;;;21.86;nan;100534.03;5032958;28;20368;-75
2022/07/06 10:16:22;;;;;;;5.57;5.03;;;;;;;21.90;nan;100539.63;5027982;28;20029;-67
2022/07/06 10:18:50;;;;;;;6.55;5.43;;;;;;;21.97;nan;100530.09;5024970;28;20087;-67
2022/07/06 10:21:17;;;;;;;7.53;5.38;;;;;;;22.03;nan;100526.22;5025026;28;20384;-67
2022/07/06 10:23:43;;;;;;;9.40;5.70;;;;;;;22.06;nan;100522.94;5025458;28;20041;-72
2022/07/06 10:26:09;;;;;;;6.28;5.68;;;;;;;22.13;nan;100529.78;5029353;28;20036;-75
2022/07/06 10:28:35;;;;;;;7.43;6.20;;;;;;;22.13;nan;100535.16;5029293;28;20044;-75
2022/07/06 10:31:02;;;;;;;9.88;6.40;;;;;;;22.03;nan;100530.78;5022700;28;20033;-67
2022/07/06 10:33:27;;;;;;;11.18;6.35;;;;;;;22.05;nan;100537.44;5026049;28;20039;-66
2022/07/06 10:35:55;;;;;;;8.63;6.40;;;;;;;22.08;nan;100578.97;5026117;28;20045;-66
2022/07/06 10:38:31;;;;;;;9.38;6.05;;;;;;;22.20;nan;100501.50;5025732;28;20033;-75
2022/07/06 10:41:09;;;;;;;8.20;6.38;;;;;;;22.32;nan;100527.81;5028781;28;20030;-75
2022/07/06 10:43:41;;;;;;;6.60;6.00;;;;;;;22.23;nan;100543.81;5026599;28;20042;-76
2022/07/06 10:46:28;;;;;;;10.77;6.70;;;;;;;22.28;nan;100546.38;5026215;28;20037;-76
2022/07/06 10:48:54;;;;;;;8.55;5.97;;;;;;;22.25;nan;100552.38;5023840;28;20040;-76
2022/07/06 10:51:32;;;;;;;6.45;5.80;;;;;;;22.29;nan;100541.81;5025528;28;20083;-76
2022/07/06 10:54:03;;;;;;;10.05;6.15;;;;;;;22.26;nan;100519.06;5024434;28;20044;-75
2022/07/06 10:56:50;;;;;;;6.30;5.70;;;;;;;22.40;nan;100540.50;5028621;28;20041;-65
2022/07/06 10:59:18;;;;;;;6.53;5.60;;;;;;;22.36;nan;100525.31;5024176;28;20034;-64
2022/07/06 11:02:15;;;;;;;8.65;5.40;;;;;;;22.46;nan;100523.22;5023401;28;20053;-64
2022/07/06 11:04:43;;;;;;;8.48;5.85;;;;;;;22.58;nan;100543.34;5023077;28;20052;-65
2022/07/06 11:07:19;;;;;;;8.90;6.25;;;;;;;22.60;nan;100590.28;5023028;28;20033;-75
2022/07/06 11:10:02;;;;;;;10.82;5.60;;;;;;;22.64;nan;100551.00;5026613;28;20125;-75
2022/07/06 11:12:28;;;;;;;9.75;5.72;;;;;;;22.67;nan;100533.50;5018107;28;20527;-77
2022/07/06 11:14:54;;;;;;;9.52;5.78;;;;;;;22.77;nan;100575.44;5023915;28;20038;-76
2022/07/06 11:17:20;;;;;;;7.45;5.50;;;;;;;22.87;nan;100594.00;5024047;28;20030;-76
2022/07/06 11:20:10;;;;;;;8.80;5.70;;;;;;;22.96;nan;100526.94;5029566;28;20428;-76
2022/07/06 11:22:37;;;;;;;13.75;5.55;;;;;;;23.00;nan;100544.06;5015269;28;20121;-75
2022/07/06 11:25:03;;;;;;;12.55;6.00;;;;;;;23.02;nan;100515.81;5041755;28;20045;-75
2022/07/06 11:27:29;;;;;;;7.03;5.82;;;;;;;22.99;nan;100531.75;5031613;28;20034;-76
2022/07/06 11:29:55;;;;;;;10.55;5.40;;;;;;;22.97;nan;100523.97;5030355;28;20040;-75
2022/07/06 11:32:25;;;;;;;8.27;5.50;;;;;;;23.09;nan;100569.09;5029261;28;20029;-76
2022/07/06 11:34:51;;;;;;;7.32;5.28;;;;;;;23.13;nan;100530.59;5025576;28;20034;-76
2022/07/06 11:37:18;;;;;;;7.75;5.95;;;;;;;23.11;nan;100534.69;5029408;28;20032;-76
2022/07/06 11:39:45;;;;;;;7.50;5.60;;;;;;;23.16;nan;100547.19;5024190;28;20038;-74
2022/07/06 11:42:12;;;;;;;8.98;5.10;;;;;;;23.20;nan;100521.28;5026289;28;20036;-75
2022/07/06 11:44:39;;;;;;;6.63;5.60;;;;;;;23.22;nan;100521.78;5024890;28;20026;-65
2022/07/06 11:47:04;;;;;;;7.78;5.65;;;;;;;;;;5023291;28;20042;-66
2022/07/06 11:49:31;;;;;;;9.98;5.05;;;;;;;23.34;nan;100544.31;5021667;28;20033;-65
2022/07/06 11:51:57;;;;;;;9.02;5.45;;;;;;;23.43;nan;100530.13;5026821;28;20059;-66
2022/07/06 11:54:23;;;;;;;8.65;5.55;;;;;;;23.46;nan;100526.81;5021906;28;20037;-76